createdAt,value
2023-05-08T00:02:12.796Z,55.50
2023-05-08T00:04:39.389Z,55.90
2023-05-08T00:07:05.999Z,55.30
2023-05-08T00:09:32.575Z,55.30
2023-05-08T00:11:59.176Z,55.30
2023-05-08T00:14:25.791Z,55.40
2023-05-08T00:16:52.487Z,55.20
2023-05-08T00:19:19.026Z,55.30
2023-05-08T00:21:45.719Z,55.20
2023-05-08T00:24:12.447Z,55.40
2023-05-08T00:26:39.101Z,55.50
2023-05-08T00:29:06.509Z,55.30
2023-05-08T00:31:33.986Z,55.60
2023-05-08T00:34:00.606Z,55.10
2023-05-08T00:36:27.627Z,55.10
2023-05-08T00:38:54.193Z,55.10
2023-05-08T00:41:20.767Z,55.10
2023-05-08T00:43:47.392Z,55.10
2023-05-08T00:46:14.185Z,55.10
2023-05-08T00:48:41.034Z,55.00
2023-05-08T00:51:08.467Z,54.90
2023-05-08T00:53:39.468Z,54.90
2023-05-08T00:56:07.064Z,54.90
2023-05-08T00:58:33.751Z,54.80
2023-05-08T01:01:00.712Z,54.90
2023-05-08T01:03:28.079Z,54.50
2023-05-08T01:05:54.712Z,54.60
2023-05-08T01:08:21.301Z,54.50
2023-05-08T01:10:58.845Z,54.60
2023-05-08T01:13:30.781Z,54.90
2023-05-08T01:16:11.891Z,55.00
2023-05-08T01:18:47.660Z,54.80
2023-05-08T01:21:14.251Z,54.90
2023-05-08T01:23:56.324Z,55.60
2023-05-08T01:26:32.803Z,55.10
2023-05-08T01:29:17.854Z,55.30
2023-05-08T01:32:03.418Z,55.20
2023-05-08T01:34:34.024Z,55.10
2023-05-08T01:37:23.089Z,54.90
2023-05-08T01:40:10.023Z,55.00
2023-05-08T01:42:53.687Z,54.90
2023-05-08T01:45:29.122Z,55.30
2023-05-08T01:48:03.988Z,54.80
2023-05-08T01:50:33.168Z,55.50
2023-05-08T01:53:05.325Z,55.10
2023-05-08T01:55:34.703Z,54.90
2023-05-08T01:58:01.855Z,54.90
2023-05-08T02:00:28.668Z,54.90
2023-05-08T02:02:55.967Z,54.80
2023-05-08T02:05:23.317Z,54.70
2023-05-08T02:07:50.427Z,54.80
2023-05-08T02:10:17.379Z,54.70
2023-05-08T02:12:44.479Z,54.80
2023-05-08T02:15:13.683Z,54.70
2023-05-08T02:17:40.902Z,55.00
2023-05-08T02:20:08.645Z,54.60
2023-05-08T02:22:36.172Z,54.60
2023-05-08T02:25:03.798Z,54.50
2023-05-08T02:27:31.390Z,54.40
2023-05-08T02:29:58.669Z,54.50
2023-05-08T02:32:25.645Z,54.50
2023-05-08T02:35:02.579Z,54.60
2023-05-08T02:37:31.102Z,54.60
2023-05-08T02:39:58.535Z,54.60
2023-05-08T02:42:25.248Z,54.30
2023-05-08T02:44:51.893Z,54.40
2023-05-08T02:47:41.841Z,54.30
2023-05-08T02:50:34.746Z,54.50
2023-05-08T02:53:03.682Z,55.10
2023-05-08T02:55:35.213Z,54.50
2023-05-08T02:58:14.755Z,54.50
2023-05-08T03:00:44.981Z,54.40
2023-05-08T03:03:21.163Z,54.50
2023-05-08T03:05:50.899Z,54.40
2023-05-08T03:08:19.423Z,54.00
2023-05-08T03:10:47.564Z,54.60
2023-05-08T03:13:14.908Z,54.30
2023-05-08T03:15:41.569Z,54.20
2023-05-08T03:18:10.787Z,54.10
2023-05-08T03:20:38.782Z,54.20
2023-05-08T03:23:06.458Z,53.80
2023-05-08T03:25:34.128Z,53.90
2023-05-08T03:28:01.116Z,54.10
2023-05-08T03:30:27.968Z,54.00
2023-05-08T03:32:55.053Z,54.40
2023-05-08T03:35:22.344Z,54.90
2023-05-08T03:37:48.941Z,54.60
2023-05-08T03:40:15.696Z,54.70
2023-05-08T03:42:43.338Z,54.50
2023-05-08T03:45:10.684Z,54.50
2023-05-08T03:47:37.791Z,54.30
2023-05-08T03:50:04.701Z,54.10
2023-05-08T03:52:32.280Z,54.00
2023-05-08T03:54:59.303Z,54.10
2023-05-08T03:57:27.076Z,54.00
2023-05-08T04:00:14.425Z,54.00
2023-05-08T04:02:42.390Z,53.90
2023-05-08T04:05:15.500Z,53.90
2023-05-08T04:07:51.250Z,53.90
2023-05-08T04:10:24.386Z,53.90
2023-05-08T04:12:57.088Z,53.80
2023-05-08T04:15:28.176Z,53.90
2023-05-08T04:17:59.721Z,53.90
2023-05-08T04:20:27.604Z,53.90
2023-05-08T04:22:54.665Z,53.80
2023-05-08T04:25:21.362Z,53.80
2023-05-08T04:27:48.605Z,53.50
2023-05-08T04:30:15.718Z,53.50
2023-05-08T04:32:44.832Z,53.70
2023-05-08T04:35:13.815Z,53.60
2023-05-08T04:37:41.441Z,53.40
2023-05-08T04:40:08.441Z,53.50
2023-05-08T04:42:36.696Z,53.40
2023-05-08T04:45:03.508Z,53.40
2023-05-08T04:47:30.115Z,53.50
2023-05-08T04:49:56.706Z,53.30
2023-05-08T04:52:23.269Z,53.50
2023-05-08T04:54:49.820Z,53.40
2023-05-08T04:57:16.425Z,53.20
2023-05-08T04:59:43.010Z,53.20
2023-05-08T05:02:09.896Z,53.10
2023-05-08T05:04:36.642Z,53.30
2023-05-08T05:07:03.681Z,53.10
2023-05-08T05:09:30.388Z,53.10
2023-05-08T05:11:58.173Z,53.30
2023-05-08T05:14:24.959Z,53.30
2023-05-08T05:16:51.527Z,53.60
2023-05-08T05:19:18.891Z,53.10
2023-05-08T05:21:45.508Z,53.10
2023-05-08T05:24:12.077Z,53.10
2023-05-08T05:26:38.698Z,53.00
2023-05-08T05:29:05.323Z,52.90
2023-05-08T05:31:31.954Z,52.90
2023-05-08T05:33:58.755Z,53.00
2023-05-08T05:36:25.376Z,52.90
2023-05-08T05:38:51.957Z,52.70
2023-05-08T05:41:18.528Z,52.70
2023-05-08T05:43:45.095Z,52.80
2023-05-08T05:46:11.741Z,52.90
2023-05-08T05:48:38.283Z,52.80
2023-05-08T05:51:04.863Z,52.90
2023-05-08T05:53:31.486Z,52.80
2023-05-08T05:55:58.041Z,53.00
2023-05-08T05:58:24.589Z,52.80
2023-05-08T06:00:51.454Z,52.60
2023-05-08T06:03:18.155Z,52.50
2023-05-08T06:05:46.547Z,52.40
2023-05-08T06:08:13.472Z,52.60
2023-05-08T06:10:40.082Z,52.20
2023-05-08T06:13:06.702Z,53.10
2023-05-08T06:15:33.892Z,52.70
2023-05-08T06:18:00.780Z,52.40
2023-05-08T06:20:27.446Z,53.40
2023-05-08T06:22:54.126Z,52.40
2023-05-08T06:25:20.707Z,52.60
2023-05-08T06:27:47.358Z,53.20
2023-05-08T06:30:14.029Z,53.10
2023-05-08T06:32:40.860Z,52.70
2023-05-08T06:35:07.724Z,52.60
2023-05-08T06:37:34.311Z,52.70
2023-05-08T06:40:11.619Z,52.50
2023-05-08T06:42:39.095Z,52.70
2023-05-08T06:45:06.435Z,52.60
2023-05-08T06:47:33.065Z,52.60
2023-05-08T06:50:00.542Z,52.50
2023-05-08T06:52:27.204Z,52.40
2023-05-08T06:54:53.860Z,52.60
2023-05-08T06:57:20.441Z,52.40
2023-05-08T06:59:47.017Z,51.90
2023-05-08T07:02:13.586Z,51.80
2023-05-08T07:04:40.276Z,51.60
2023-05-08T07:07:07.762Z,51.90
2023-05-08T07:09:34.358Z,52.20
2023-05-08T07:12:00.915Z,51.90
2023-05-08T07:14:27.608Z,52.70
2023-05-08T07:16:54.424Z,52.50
2023-05-08T07:19:22.564Z,52.40
2023-05-08T07:21:49.375Z,53.00
2023-05-08T07:24:16.166Z,52.50
2023-05-08T07:26:42.812Z,53.20
2023-05-08T07:29:09.383Z,52.90
2023-05-08T07:31:38.907Z,52.30
2023-05-08T07:34:07.190Z,53.10
2023-05-08T07:36:33.810Z,52.30
2023-05-08T07:39:00.433Z,52.80
2023-05-08T07:41:27.076Z,52.20
2023-05-08T07:43:53.856Z,51.50
2023-05-08T07:46:20.677Z,51.40
2023-05-08T07:48:47.354Z,51.20
2023-05-08T07:51:14.390Z,51.40
2023-05-08T07:53:41.052Z,49.70
2023-05-08T07:56:08.004Z,50.10
2023-05-08T07:58:35.048Z,48.60
2023-05-08T08:01:02.156Z,49.70
2023-05-08T08:03:29.024Z,48.20
2023-05-08T08:05:55.775Z,48.20
2023-05-08T08:08:22.344Z,48.40
2023-05-08T08:10:49.833Z,47.80
2023-05-08T08:13:17.633Z,48.50
2023-05-08T08:15:44.470Z,48.60
2023-05-08T08:18:11.210Z,48.00
2023-05-08T08:20:38.025Z,49.00
2023-05-08T08:23:04.660Z,48.40
2023-05-08T08:25:31.452Z,47.20
2023-05-08T08:27:58.519Z,47.90
2023-05-08T08:30:25.496Z,46.70
2023-05-08T08:32:52.186Z,47.10
2023-05-08T08:35:18.880Z,47.30
2023-05-08T08:37:45.699Z,48.00
2023-05-08T08:40:12.456Z,47.60
2023-05-08T08:42:39.218Z,45.70
2023-05-08T08:45:06.903Z,45.80
2023-05-08T08:47:42.978Z,46.50
2023-05-08T08:50:11.964Z,47.30
2023-05-08T08:52:47.556Z,47.10
2023-05-08T08:55:16.521Z,46.10
2023-05-08T08:57:54.944Z,46.20
2023-05-08T09:00:22.594Z,46.10
2023-05-08T09:02:49.691Z,45.30
2023-05-08T09:05:16.633Z,45.50
2023-05-08T09:07:43.828Z,45.50
2023-05-08T09:10:15.357Z,45.90
2023-05-08T09:12:42.483Z,45.90
2023-05-08T09:15:09.206Z,46.20
2023-05-08T09:17:35.778Z,45.60
2023-05-08T09:20:03.322Z,46.10
2023-05-08T09:22:30.331Z,46.00
2023-05-08T09:24:57.748Z,45.70
2023-05-08T09:27:25.015Z,45.00
2023-05-08T09:30:10.965Z,45.00
2023-05-08T09:32:38.835Z,45.40
2023-05-08T09:35:06.459Z,44.50
2023-05-08T09:37:33.889Z,44.50
2023-05-08T09:40:19.218Z,43.80
2023-05-08T09:42:46.228Z,44.70
2023-05-08T09:45:26.008Z,44.00
2023-05-08T09:47:52.636Z,44.20
2023-05-08T09:50:19.228Z,44.20
2023-05-08T09:52:46.999Z,43.60
2023-05-08T09:55:13.561Z,44.50
2023-05-08T09:57:51.519Z,45.00
2023-05-08T10:00:18.368Z,45.70
2023-05-08T10:02:57.724Z,45.70
2023-05-08T10:05:25.629Z,47.90
2023-05-08T10:07:52.239Z,46.50
2023-05-08T10:10:26.685Z,47.50
2023-05-08T10:12:54.008Z,49.20
2023-05-08T10:15:22.993Z,47.50
2023-05-08T10:17:53.873Z,48.50
2023-05-08T10:20:23.357Z,48.70
2023-05-08T10:22:50.671Z,48.10
2023-05-08T10:25:17.912Z,49.00
2023-05-08T10:27:52.594Z,48.40
2023-05-08T10:30:23.730Z,49.20
2023-05-08T10:32:52.726Z,47.30
2023-05-08T10:35:19.440Z,47.40
2023-05-08T10:37:47.498Z,47.80
2023-05-08T10:40:15.993Z,48.00
2023-05-08T10:42:43.564Z,46.70
2023-05-08T10:45:10.682Z,46.50
2023-05-08T10:47:56.290Z,47.20
2023-05-08T10:50:35.352Z,46.10
2023-05-08T10:53:01.889Z,46.60
2023-05-08T10:55:30.172Z,46.10
2023-05-08T10:58:03.901Z,45.70
2023-05-08T11:00:49.057Z,47.10
2023-05-08T11:03:29.884Z,46.50
2023-05-08T11:05:58.980Z,46.50
2023-05-08T11:08:27.396Z,46.50
2023-05-08T11:11:00.211Z,46.90
2023-05-08T11:13:43.366Z,47.90
2023-05-08T11:16:11.155Z,48.20
2023-05-08T11:18:49.078Z,48.30
2023-05-08T11:21:21.389Z,48.30
2023-05-08T11:23:56.019Z,47.90
2023-05-08T11:26:37.981Z,48.60
2023-05-08T11:29:15.601Z,48.10
2023-05-08T11:31:52.581Z,49.40
2023-05-08T11:34:42.831Z,50.00
2023-05-08T11:37:20.027Z,48.30
2023-05-08T11:39:47.231Z,49.80
2023-05-08T11:42:27.005Z,49.50
2023-05-08T11:45:05.976Z,49.60
2023-05-08T11:47:37.009Z,49.20
2023-05-08T11:50:03.836Z,49.60
2023-05-08T11:52:34.540Z,50.10
2023-05-08T11:55:01.817Z,47.30
2023-05-08T11:57:30.360Z,49.00
2023-05-08T11:59:56.936Z,48.70
2023-05-08T12:02:39.676Z,48.80
2023-05-08T12:05:07.242Z,47.70
2023-05-08T12:07:42.063Z,49.30
2023-05-08T12:10:08.896Z,49.70
2023-05-08T12:12:42.230Z,47.70
2023-05-08T12:15:09.826Z,47.40
2023-05-08T12:17:36.876Z,47.90
2023-05-08T12:20:17.028Z,48.60
2023-05-08T12:22:50.409Z,48.60
2023-05-08T12:25:17.471Z,48.80
2023-05-08T12:27:44.502Z,48.80
2023-05-08T12:30:14.733Z,49.80
2023-05-08T12:32:42.345Z,49.90
2023-05-08T12:35:09.918Z,49.50
2023-05-08T12:37:36.718Z,46.50
2023-05-08T12:40:04.365Z,48.20
2023-05-08T12:42:43.038Z,47.60
2023-05-08T12:45:16.338Z,47.60
2023-05-08T12:47:45.414Z,48.50
2023-05-08T12:50:14.392Z,50.10
2023-05-08T12:52:41.233Z,47.20
2023-05-08T12:55:20.325Z,49.20
2023-05-08T12:57:46.928Z,46.20
2023-05-08T13:00:15.596Z,45.60
2023-05-08T13:02:51.250Z,46.80
2023-05-08T13:05:21.983Z,46.60
2023-05-08T13:07:49.449Z,46.90
2023-05-08T13:10:16.360Z,46.60
2023-05-08T13:12:43.051Z,46.50
2023-05-08T13:15:09.768Z,46.30
2023-05-08T13:17:36.495Z,46.10
2023-05-08T13:20:06.376Z,46.40
2023-05-08T13:22:33.107Z,46.50
2023-05-08T13:24:59.738Z,47.10
2023-05-08T13:27:26.413Z,46.70
2023-05-08T13:29:53.019Z,46.10
2023-05-08T13:32:19.576Z,46.30
2023-05-08T13:34:50.234Z,46.50
2023-05-08T13:37:18.996Z,46.90
2023-05-08T13:39:45.859Z,46.90
2023-05-08T13:42:12.434Z,47.30
2023-05-08T13:44:39.007Z,47.40
2023-05-08T13:47:05.766Z,47.30
2023-05-08T13:49:32.367Z,47.90
2023-05-08T13:51:58.955Z,47.30
2023-05-08T13:54:25.553Z,48.60
2023-05-08T13:56:53.858Z,46.10
2023-05-08T13:59:20.430Z,47.90
2023-05-08T14:01:47.044Z,44.60
2023-05-08T14:04:13.761Z,48.40
2023-05-08T14:06:40.518Z,48.00
2023-05-08T14:09:07.100Z,45.80
2023-05-08T14:11:33.706Z,47.30
2023-05-08T14:14:00.301Z,48.00
2023-05-08T14:16:26.918Z,48.40
2023-05-08T14:18:53.555Z,48.90
2023-05-08T14:21:20.282Z,47.70
2023-05-08T14:23:46.879Z,44.90
2023-05-08T14:26:13.529Z,47.90
2023-05-08T14:28:40.128Z,48.40
2023-05-08T14:31:06.804Z,48.10
2023-05-08T14:33:33.453Z,47.00
2023-05-08T14:36:00.043Z,45.70
2023-05-08T14:38:26.601Z,46.70
2023-05-08T14:40:56.174Z,47.90
2023-05-08T14:43:22.859Z,46.50
2023-05-08T14:45:49.751Z,48.10
2023-05-08T14:48:16.358Z,48.10
2023-05-08T14:50:42.914Z,45.40
2023-05-08T14:53:09.597Z,48.00
2023-05-08T14:55:37.060Z,48.80
2023-05-08T14:58:03.932Z,48.60
2023-05-08T15:00:30.519Z,50.10
2023-05-08T15:02:57.249Z,47.70
2023-05-08T15:05:24.394Z,46.10
2023-05-08T15:07:51.376Z,47.60
2023-05-08T15:10:17.979Z,49.10
2023-05-08T15:12:44.638Z,50.30
2023-05-08T15:15:11.539Z,50.00
2023-05-08T15:17:41.240Z,48.00
2023-05-08T15:20:08.562Z,48.90
2023-05-08T15:22:35.250Z,48.40
2023-05-08T15:25:02.714Z,47.40
2023-05-08T15:27:29.578Z,47.00
2023-05-08T15:29:56.201Z,47.90
2023-05-08T15:32:22.840Z,50.40
2023-05-08T15:34:49.519Z,49.50
2023-05-08T15:37:16.160Z,51.20
2023-05-08T15:39:43.298Z,50.60
2023-05-08T15:42:09.953Z,51.70
2023-05-08T15:47:05.961Z,50.60
2023-05-08T15:49:32.518Z,50.40
2023-05-08T15:51:59.093Z,47.90
2023-05-08T15:54:25.634Z,49.00
2023-05-08T15:56:52.193Z,50.60
2023-05-08T15:59:18.830Z,49.40
2023-05-08T16:01:46.907Z,50.80
2023-05-08T16:04:13.672Z,49.70
2023-05-08T16:06:40.253Z,48.50
2023-05-08T16:09:07.421Z,50.50
2023-05-08T16:11:34.007Z,52.80
2023-05-08T16:14:01.863Z,49.70
2023-05-08T16:16:28.536Z,51.90
2023-05-08T16:18:55.191Z,52.50
2023-05-08T16:21:22.736Z,53.30
2023-05-08T16:23:49.668Z,54.10
2023-05-08T16:26:16.583Z,51.50
2023-05-08T16:28:43.147Z,49.50
2023-05-08T16:31:11.648Z,49.40
2023-05-08T16:33:38.288Z,48.70
2023-05-08T16:36:05.108Z,50.10
2023-05-08T16:38:31.717Z,49.10
2023-05-08T16:41:02.731Z,51.10
2023-05-08T16:43:29.371Z,49.90
2023-05-08T16:45:57.454Z,48.30
2023-05-08T16:48:26.719Z,52.20
2023-05-08T16:50:53.308Z,50.70
2023-05-08T16:53:19.987Z,51.50
2023-05-08T16:55:46.612Z,51.10
2023-05-08T16:58:13.259Z,49.40
2023-05-08T17:00:39.928Z,48.80
2023-05-08T17:03:06.590Z,50.10
2023-05-08T17:05:33.612Z,51.10
2023-05-08T17:08:00.180Z,51.80
2023-05-08T17:10:26.820Z,51.30
2023-05-08T17:12:54.308Z,52.20
2023-05-08T17:15:20.958Z,52.20
2023-05-08T17:17:49.394Z,52.20
2023-05-08T17:20:16.213Z,52.20
2023-05-08T17:22:42.866Z,51.50
2023-05-08T17:25:09.464Z,52.10
2023-05-08T17:27:36.909Z,52.30
2023-05-08T17:30:04.112Z,53.30
2023-05-08T17:32:30.717Z,52.40
2023-05-08T17:34:57.317Z,52.70
2023-05-08T17:37:23.944Z,50.80
2023-05-08T17:39:50.590Z,52.80
2023-05-08T17:42:17.163Z,51.90
2023-05-08T17:44:43.892Z,52.50
2023-05-08T17:47:10.539Z,52.30
2023-05-08T17:49:37.173Z,51.90
2023-05-08T17:52:04.333Z,50.20
2023-05-08T17:54:30.992Z,52.20
2023-05-08T17:56:57.569Z,52.80
2023-05-08T17:59:24.562Z,53.10
2023-05-08T18:01:51.272Z,52.10
2023-05-08T18:04:17.847Z,51.20
2023-05-08T18:06:47.424Z,52.50
2023-05-08T18:09:13.990Z,51.80
2023-05-08T18:11:41.242Z,50.70
2023-05-08T18:14:07.847Z,54.20
2023-05-08T18:16:34.543Z,53.90
2023-05-08T18:19:01.130Z,53.60
2023-05-08T18:21:28.796Z,53.00
2023-05-08T18:23:55.367Z,54.30
2023-05-08T18:26:22.152Z,54.50
2023-05-08T18:28:48.736Z,54.20
2023-05-08T18:31:16.623Z,54.10
2023-05-08T18:33:43.408Z,54.20
2023-05-08T18:36:10.019Z,54.00
2023-05-08T18:38:36.626Z,54.30
2023-05-08T18:41:03.899Z,54.40
2023-05-08T18:43:30.700Z,53.40
2023-05-08T18:45:57.998Z,54.00
2023-05-08T18:48:25.376Z,54.90
2023-05-08T18:50:52.003Z,55.30
2023-05-08T18:53:18.888Z,54.90
2023-05-08T18:55:45.533Z,54.60
2023-05-08T18:58:12.475Z,55.20
2023-05-08T19:00:39.072Z,54.70
2023-05-08T19:03:05.745Z,54.80
2023-05-08T19:05:32.450Z,55.20
2023-05-08T19:07:59.019Z,55.00
2023-05-08T19:10:25.746Z,54.70
2023-05-08T19:12:52.407Z,54.10
2023-05-08T19:15:19.095Z,53.50
2023-05-08T19:17:45.733Z,53.70
2023-05-08T19:20:12.818Z,53.90
2023-05-08T19:22:39.513Z,53.60
2023-05-08T19:25:06.164Z,53.70
2023-05-08T19:27:32.810Z,53.10
2023-05-08T19:29:59.380Z,53.70
2023-05-08T19:32:26.143Z,53.40
2023-05-08T19:34:53.506Z,53.10
2023-05-08T19:37:20.056Z,53.10
2023-05-08T19:39:46.648Z,53.30
2023-05-08T19:42:13.839Z,53.90
2023-05-08T19:44:40.440Z,53.50
2023-05-08T19:47:07.197Z,54.00
2023-05-08T19:49:33.868Z,53.40
2023-05-08T19:52:00.452Z,53.60
2023-05-08T19:54:27.012Z,53.40
2023-05-08T19:56:53.649Z,53.60
2023-05-08T19:59:20.195Z,53.50
2023-05-08T20:01:46.848Z,53.00
2023-05-08T20:04:13.505Z,53.20
2023-05-08T20:06:40.466Z,53.70
2023-05-08T20:09:07.079Z,53.80
2023-05-08T20:11:33.659Z,54.40
2023-05-08T20:14:00.417Z,54.00
2023-05-08T20:16:27.095Z,53.90
2023-05-08T20:18:53.852Z,53.80
2023-05-08T20:21:20.813Z,54.20
2023-05-08T20:23:47.403Z,54.80
2023-05-08T20:26:13.968Z,53.80
2023-05-08T20:28:40.512Z,53.80
2023-05-08T20:31:07.204Z,53.70
2023-05-08T20:33:33.854Z,53.70
2023-05-08T20:36:00.542Z,53.60
2023-05-08T20:38:27.348Z,53.90
2023-05-08T20:40:57.586Z,53.60
2023-05-08T20:43:26.057Z,53.70
2023-05-08T20:45:52.665Z,53.30
2023-05-08T20:48:19.281Z,53.50
2023-05-08T20:50:47.899Z,53.50
2023-05-08T20:53:14.465Z,53.60
2023-05-08T20:55:41.070Z,53.90
2023-05-08T20:58:09.051Z,53.70
2023-05-08T21:00:35.883Z,53.70
2023-05-08T21:03:03.031Z,53.90
2023-05-08T21:05:29.692Z,54.40
2023-05-08T21:07:59.965Z,54.10
2023-05-08T21:10:28.595Z,53.80
2023-05-08T21:12:55.281Z,53.90
2023-05-08T21:15:22.052Z,54.00
2023-05-08T21:17:50.350Z,54.30
2023-05-08T21:20:17.301Z,54.30
2023-05-08T21:22:46.126Z,54.50
2023-05-08T21:25:14.903Z,54.60
2023-05-08T21:27:44.671Z,54.70
2023-05-08T21:30:16.390Z,54.90
2023-05-08T21:32:43.739Z,54.90
2023-05-08T21:35:11.122Z,55.10
2023-05-08T21:37:38.305Z,54.70
2023-05-08T21:40:05.313Z,54.90
2023-05-08T21:42:32.057Z,54.60
2023-05-08T21:44:59.278Z,54.70
2023-05-08T21:47:27.951Z,54.80
2023-05-08T21:49:55.006Z,55.00
2023-05-08T21:52:22.484Z,55.40
2023-05-08T21:54:49.591Z,55.50
2023-05-08T21:57:16.688Z,55.60
2023-05-08T21:59:43.381Z,55.70
2023-05-08T22:02:10.059Z,55.70
2023-05-08T22:04:36.657Z,55.40
2023-05-08T22:07:03.268Z,55.50
2023-05-08T22:09:29.914Z,55.50
2023-05-08T22:11:56.521Z,55.80
2023-05-08T22:14:23.096Z,55.70
2023-05-08T22:16:49.892Z,55.60
2023-05-08T22:19:16.534Z,55.30
2023-05-08T22:21:43.096Z,54.80
2023-05-08T22:24:09.657Z,55.50
2023-05-08T22:26:36.228Z,54.90
2023-05-08T22:29:02.814Z,54.70
2023-05-08T22:31:29.435Z,55.30
2023-05-08T22:33:57.146Z,54.90
2023-05-08T22:36:24.114Z,55.00
2023-05-08T22:38:53.203Z,54.90
2023-05-08T22:41:19.764Z,55.30
2023-05-08T22:43:46.542Z,55.40
2023-05-08T22:46:13.204Z,54.90
2023-05-08T22:48:39.793Z,55.30
2023-05-08T22:51:06.441Z,55.00
2023-05-08T22:53:33.009Z,54.90
2023-05-08T22:55:59.582Z,54.40
2023-05-08T22:58:27.199Z,54.30
2023-05-08T23:00:53.868Z,54.40
2023-05-08T23:03:20.519Z,54.80
2023-05-08T23:05:48.732Z,54.60
2023-05-08T23:08:15.414Z,54.50
2023-05-08T23:10:42.126Z,55.20
2023-05-08T23:13:08.739Z,54.50
2023-05-08T23:15:35.918Z,54.90
2023-05-08T23:18:02.578Z,55.10
2023-05-08T23:20:29.160Z,54.60
2023-05-08T23:22:55.811Z,55.30
2023-05-08T23:25:22.435Z,54.70
2023-05-08T23:27:50.767Z,54.60
2023-05-08T23:30:17.362Z,54.50
2023-05-08T23:32:44.369Z,54.20
2023-05-08T23:35:11.381Z,54.30
2023-05-08T23:37:38.074Z,54.30
2023-05-08T23:40:06.103Z,54.30
2023-05-08T23:42:32.768Z,54.00
2023-05-08T23:44:59.324Z,53.90
2023-05-08T23:47:26.029Z,53.80
2023-05-08T23:49:52.632Z,54.40
2023-05-08T23:52:20.183Z,54.00
2023-05-08T23:54:46.808Z,54.10
2023-05-08T23:57:13.386Z,54.60
2023-05-08T23:59:39.938Z,53.70
